• Join FlightAware (Why Join?)
  • Login
  • US Flag 
03:32PM EDT


 

Airport Tracker/Info


-or-


 

Live Flight TrackerFlight Track Log ✈ DAL268 ✈ 21-Aug-2013 ✈ KJFK - LLBG / TLV

Flight Track Log - Related Links

Times and Time Zones

All times are in EDT time to prevent confusion due to time zone crossing. See the DAL268 flight status page for this flight to view local times or setup timezone preferences in your user account.

Time Position Orientation Groundspeed Altitude Reporting Facility
EDT Latitude Longitude Course Direction KTS MPH feet Rate Location/Type
11:50PM 40.6420 -73.7770 264° West  Level FlightAware
11:56PM 40.8808 -73.5525 37° Northeast  Level FlightAware Approximate
11:58PM 40.8448 -73.5886 37° Northeast  Level FlightAware Approximate
11:59PM 40.9564 -73.4872 56° Northeast  Level FlightAware Approximate
12:00AM 41.0707 -73.3858 30° Northeast  Level FlightAware Approximate
12:01AM 41.1902 -73.2931 37° Northeast  Level FlightAware Approximate
12:02AM 41.3030 -73.1872 48° Northeast  Level FlightAware Approximate
12:11AM 40.8633 -73.5701 37° Northeast  Level FlightAware Approximate
12:12AM 40.9706 -73.4636 30° Northeast  Level FlightAware Approximate
12:12AM 40.6540 -73.7610 30° Northeast  Level FlightAware
12:13AM 40.6470 -73.7660 207° Southwest 110 127 420 Level FlightAware
12:13AM 40.6360 -73.7750 212° Southwest 165 190 840 Level FlightAware
12:13AM 40.6210 -73.7870 211° Southwest 171 197 600 1,680 Climbing FlightAware
12:14AM 40.6070 -73.7970 208° Southwest 176 203 1,200 1,260 Climbing FlightAware
12:14AM 40.5890 -73.8080 205° Southwest 209 241 1,500 600 Climbing FlightAware
12:14AM 40.5820 -73.8100 192° South 225 259 1,500 840 Level FlightAware
12:15AM 40.5530 -73.7990 164° South 260 299 2,000 960 Climbing FlightAware
12:15AM 40.5400 -73.7820 135° Southeast 276 318 2,200 1,080 Climbing FlightAware
12:15AM 40.5350 -73.7710 121° Southeast 283 326 2,400 1,740 Climbing FlightAware
12:15AM 40.5260 -73.7390 110° East 296 341 3,000 1,920 Climbing FlightAware
12:16AM 40.5250 -73.7290 97° East 301 346 3,200 1,560 Climbing FlightAware
12:16AM 40.5290 -73.7020 79° East 308 354 3,700 1,800 Climbing FlightAware
12:16AM 40.5350 -73.6860 64° Northeast 308 354 4,100 2,760 Climbing FlightAware
12:16AM 40.5430 -73.6730 51° Northeast 306 352 4,400 2,880 Climbing FlightAware
12:16AM 40.5610 -73.6470 48° Northeast 307 353 5,300 2,520 Climbing FlightAware
12:17AM 40.5760 -73.6250 48° Northeast 308 354 5,900 2,400 Climbing FlightAware
12:17AM 40.5950 -73.5970 48° Northeast 310 357 6,700 2,220 Climbing FlightAware
12:17AM 40.6120 -73.5780 40° Northeast 310 357 7,200 2,160 Climbing FlightAware
12:17AM 40.6250 -73.5680 30° Northeast 311 358 7,600 2,160 Climbing FlightAware
12:18AM 40.6510 -73.5530 24° Northeast 315 362 8,300 2,100 Climbing FlightAware
12:18AM 40.6780 -73.5370 24° Northeast 316 364 9,000 2,100 Climbing FlightAware
12:18AM 40.7070 -73.5220 21° North 321 369 9,700 1,620 Climbing FlightAware
12:19AM 40.7530 -73.4950 24° Northeast 342 394 10,500 1,140 Climbing FlightAware
12:20AM 40.8160 -73.4600 23° Northeast 374 430 11,200 1,020 Climbing FlightAware
12:20AM 40.8820 -73.4230 23° Northeast 406 467 11,900 1,260 Climbing FlightAware
12:21AM 40.9380 -73.3920 23° Northeast 422 486 12,700 1,800 Climbing FlightAware
12:22AM 41.0090 -73.3530 23° Northeast 434 499 14,000 1,920 Climbing FlightAware
12:22AM 41.0770 -73.3140 23° Northeast 446 513 15,100 1,920 Climbing FlightAware
12:23AM 41.1320 -73.2820 24° Northeast 452 520 16,100 1,980 Climbing FlightAware
12:23AM 41.2000 -73.2420 24° Northeast 460 529 17,300 1,980 Climbing FlightAware
12:24AM 41.2770 -73.1980 23° Northeast 468 539 18,600 240 Climbing FlightAware
12:24AM 41.2171 -73.2323 203° Southwest 457 526 17,600 1,740 Descending FlightAware ADS-B
12:25AM 41.3887 -73.1177 27° Northeast 476 548 20,200 3,600 Climbing FlightAware ADS-B
12:25AM 41.4195 -73.0671 51° Northeast 483 556 20,800 1,500 Climbing FlightAware ADS-B
12:26AM 41.4570 -72.9850 59° Northeast 488 562 21,600 1,440 Climbing FlightAware
12:26AM 41.5010 -72.8820 60° Northeast 497 572 22,600 1,440 Climbing FlightAware
12:27AM 41.5470 -72.7770 60° Northeast 503 579 23,500 1,320 Climbing FlightAware
12:28AM 41.5840 -72.6930 59° Northeast 510 587 24,300 1,320 Climbing FlightAware
12:29AM 41.6580 -72.5230 60° Northeast 518 596 25,600 960 Climbing FlightAware
12:29AM 41.7190 -72.3910 58° Northeast 523 602 26,100 1,080 Climbing FlightAware
12:30AM 41.7730 -72.2730 58° Northeast 534 615 27,300 1,500 Climbing FlightAware
12:31AM 41.8670 -72.1180 51° Northeast 535 616 28,600 1,320 Climbing FlightAware
12:32AM 41.9200 -72.0310 51° Northeast 533 613 29,400 1,320 Climbing FlightAware
12:32AM 41.9720 -71.9420 52° Northeast 533 613 30,100 1,200 Climbing FlightAware
12:33AM 42.0240 -71.8510 52° Northeast 531 611 30,900 1,260 Climbing FlightAware
12:33AM 42.0800 -71.7580 51° Northeast 531 611 31,600 900 Climbing FlightAware
12:34AM 42.1360 -71.6660 51° Northeast 524 603 32,000 360 Climbing FlightAware
12:34AM 42.1810 -71.5910 51° Northeast 521 600 32,000  Level FlightAware
12:35AM 42.2360 -71.5000 51° Northeast 519 597 32,000  Level FlightAware
12:36AM 42.2820 -71.4230 51° Northeast 519 597 32,000  Level FlightAware
12:36AM 42.3420 -71.3220 51° Northeast 519 597 32,000  Level FlightAware
12:37AM 42.3860 -71.2470 52° Northeast 520 598 32,000  Level FlightAware
12:37AM 42.4480 -71.1440 51° Northeast 522 601 32,000  Level FlightAware
12:38AM 42.5060 -71.0460 51° Northeast 523 602 32,000  Level FlightAware
12:39AM 42.5630 -70.9480 52° Northeast 523 602 32,000  Level FlightAware
12:39AM 42.6160 -70.8580 51° Northeast 523 602 32,000  Level FlightAware
12:40AM 42.6670 -70.7720 51° Northeast 523 602 32,000  Level FlightAware
12:40AM 42.7230 -70.6760 52° Northeast 522 601 32,000  Level FlightAware
12:41AM 42.7750 -70.5860 52° Northeast 526 605 32,000  Level FlightAware
12:42AM 42.8240 -70.5010 52° Northeast 525 604 32,000  Level FlightAware
12:42AM 42.8720 -70.4180 52° Northeast 524 603 32,000  Level FlightAware
12:43AM 42.9370 -70.3070 51° Northeast 522 601 32,000  Level FlightAware
12:43AM 42.9860 -70.2210 52° Northeast 522 601 32,000  Level FlightAware
12:44AM 43.0420 -70.1240 52° Northeast 521 600 32,000  Level FlightAware
12:45AM 43.0910 -70.0380 52° Northeast 520 598 32,000  Level FlightAware
12:45AM 43.1450 -69.9420 52° Northeast 520 598 32,000  Level FlightAware
12:46AM 43.2070 -69.8330 52° Northeast 521 600 32,000  Level FlightAware
12:46AM 43.2600 -69.7390 52° Northeast 521 600 32,000  Level FlightAware
12:47AM 43.3140 -69.6440 52° Northeast 522 601 32,000  Level FlightAware
12:48AM 43.3570 -69.5690 52° Northeast 522 601 32,000  Level FlightAware
12:48AM 43.4020 -69.4890 52° Northeast 522 601 32,000  Level FlightAware
12:49AM 43.4550 -69.3930 53° Northeast 523 602 32,000  Level FlightAware
12:49AM 43.5140 -69.2880 52° Northeast 524 603 32,000  Level FlightAware
12:50AM 43.5670 -69.1930 52° Northeast 524 603 32,000  Level FlightAware
12:51AM 43.6360 -69.0690 52° Northeast 524 603 32,000  Level FlightAware
12:55AM 44.0030 -68.3970 53° Northeast 526 605 32,000  Level FlightAware
12:55AM 44.0600 -68.2910 53° Northeast 526 605 32,000  Level FlightAware
12:56AM 44.1130 -68.1920 53° Northeast 526 605 32,000  Level FlightAware
12:57AM 44.1620 -68.1000 53° Northeast 525 604 32,000  Level FlightAware
12:57AM 44.2150 -68.0010 53° Northeast 524 603 32,000  Level FlightAware
12:58AM 44.2660 -67.9060 53° Northeast 524 603 32,000  Level FlightAware
12:58AM 44.3170 -67.8110 53° Northeast 525 604 32,000  Level FlightAware
12:59AM 44.3690 -67.7130 53° Northeast 525 604 32,000  Level FlightAware
01:00AM 44.4150 -67.6250 54° Northeast 523 602 32,000  Level FlightAware
01:00AM 44.4700 -67.5210 53° Northeast 524 603 32,000  Level FlightAware
01:01AM 44.5180 -67.4280 54° Northeast 524 603 32,000  Level FlightAware
01:01AM 44.5720 -67.3240 54° Northeast 524 603 32,000  Level FlightAware
01:02AM 44.6180 -67.2370 53° Northeast 524 603 32,000  Level FlightAware
01:03AM 44.6700 -67.1360 54° Northeast 524 603 32,000  Level FlightAware
01:03AM 44.7210 -67.0370 54° Northeast 522 601 32,000  Level FlightAware
01:04AM 44.7660 -66.9500 54° Northeast 523 602 32,000  Level FlightAware
01:04AM 44.8270 -66.8300 54° Northeast 522 601 32,000  Level FlightAware
01:05AM 44.8830 -66.7210 54° Northeast 522 601 32,000  Level FlightAware
01:06AM 44.9330 -66.6220 54° Northeast 522 601 32,000  Level FlightAware
01:06AM 44.9880 -66.5130 54° Northeast 521 600 32,000  Level FlightAware
01:07AM 45.0380 -66.4150 54° Northeast 516 594 32,000  Level FlightAware
01:08AM 45.0930 -66.3050 55° Northeast 516 594 32,000  Level FlightAware
01:08AM 45.1350 -66.2200 55° Northeast 515 593 32,000  Level FlightAware
01:09AM 45.1830 -66.1240 55° Northeast 514 592 32,000  Level FlightAware
01:09AM 45.2390 -66.0110 55° Northeast 515 593 32,000  Level FlightAware
01:10AM 45.2800 -65.9300 54° Northeast 516 594 32,000  Level FlightAware
01:10AM 45.3290 -65.8300 55° Northeast 517 595 32,000  Level FlightAware
01:11AM 45.3840 -65.7200 55° Northeast 518 596 32,000  Level FlightAware
01:12AM 45.4270 -65.6340 55° Northeast 518 596 32,000  Level FlightAware
01:12AM 45.4740 -65.5380 55° Northeast 518 596 32,000  Level FlightAware
01:13AM 45.5470 -65.3850 56° Northeast 518 596 32,000  Level FlightAware
01:14AM 45.5150 -65.4540 237° Southwest 523 602 32,000  Level FlightAware
01:15AM 45.5570 -65.3670 55° Northeast 523 602 32,000  Level FlightAware
01:15AM 45.6170 -65.2410 56° Northeast 523 602 32,000  Level FlightAware
01:16AM 45.6660 -65.1420 55° Northeast 523 602 32,000  Level FlightAware
01:16AM 45.7080 -65.0550 55° Northeast 523 602 32,000  Level FlightAware
01:17AM 45.7510 -64.9680 55° Northeast 523 602 32,000  Level FlightAware
01:18AM 45.7930 -64.8810 55° Northeast 523 602 32,000  Level FlightAware
01:18AM 45.8370 -64.7920 55° Northeast 523 602 32,000  Level FlightAware
01:19AM 45.8790 -64.7050 55° Northeast 523 602 32,000  Level FlightAware
01:20AM 45.9220 -64.6180 55° Northeast 523 602 32,000  Level FlightAware
01:20AM 45.9640 -64.5300 56° Northeast 523 602 32,000  Level FlightAware
01:21AM 46.0060 -64.4430 55° Northeast 523 602 32,000  Level FlightAware
01:21AM 46.0490 -64.3560 55° Northeast 523 602 32,000  Level FlightAware
01:22AM 46.0910 -64.2680 55° Northeast 523 602 32,000  Level FlightAware
01:23AM 46.1340 -64.1810 54° Northeast 523 602 32,000  Level FlightAware
01:23AM 46.1760 -64.0930 55° Northeast 523 602 32,000  Level FlightAware
01:24AM 46.2190 -64.0060 54° Northeast 523 602 32,000  Level FlightAware
01:24AM 46.2610 -63.9180 55° Northeast 523 602 32,000  Level FlightAware
01:25AM 46.3050 -63.8280 55° Northeast 523 602 32,000  Level FlightAware
01:26AM 45.7510 -64.9610 235° Southwest 523 602 32,000  Level FlightAware
01:27AM 46.6600 -62.9870 56° Northeast 518 596 32,000  Level FlightAware
01:27AM 46.7000 -62.8960 57° Northeast 518 596 32,000  Level FlightAware
01:28AM 46.7410 -62.8040 57° Northeast 518 596 32,000  Level FlightAware
01:29AM 46.8010 -62.6680 57° Northeast 515 593 32,000  Level FlightAware
01:29AM 46.8410 -62.5790 57° Northeast 515 593 32,000  Level FlightAware
01:30AM 46.8800 -62.4890 58° Northeast 515 593 32,000  Level FlightAware
01:31AM 46.9200 -62.4000 57° Northeast 515 593 32,000  Level FlightAware
01:31AM 46.9870 -62.2410 58° Northeast 514 592 32,000  Level FlightAware
01:32AM 47.0270 -62.1520 57° Northeast 514 592 32,000  Level FlightAware
01:32AM 47.0880 -62.0000 59° Northeast 515 593 32,000  Level FlightAware
01:33AM 47.1310 -61.8990 58° Northeast 515 593 32,000  Level FlightAware
01:34AM 47.2090 -61.7150 58° Northeast 517 595 32,000  Level FlightAware
01:35AM 47.2500 -61.6170 58° Northeast 518 596 32,000  Level FlightAware
01:35AM 47.2950 -61.5100 58° Northeast 518 596 32,000  Level FlightAware
01:36AM 47.3410 -61.4010 58° Northeast 519 597 32,000  Level FlightAware
01:36AM 47.3800 -61.3050 59° Northeast 520 598 32,000  Level FlightAware
01:37AM 47.4360 -61.1720 58° Northeast 521 600 32,000  Level FlightAware
01:38AM 47.4790 -61.0670 59° Northeast 521 600 32,000  Level FlightAware
01:38AM 47.5210 -60.9670 58° Northeast 521 600 32,000  Level FlightAware
01:39AM 47.5610 -60.8720 58° Northeast 521 600 32,000  Level FlightAware
01:39AM 47.6000 -60.7790 58° Northeast 521 600 32,000  Level FlightAware
01:40AM 47.6390 -60.6860 58° Northeast 521 600 32,000  Level FlightAware
01:41AM 47.6780 -60.5930 58° Northeast 521 600 32,000  Level FlightAware
01:41AM 47.7180 -60.4980 58° Northeast 521 600 32,000  Level FlightAware
01:42AM 47.7570 -60.4050 58° Northeast 521 600 32,000  Level FlightAware
01:43AM 47.7990 -60.3070 57° Northeast 521 600 32,000  Level FlightAware
01:43AM 47.8380 -60.2130 58° Northeast 521 600 32,000  Level FlightAware
01:44AM 47.8770 -60.1200 58° Northeast 521 600 32,000  Level FlightAware
01:44AM 47.9160 -60.0270 58° Northeast 521 600 32,000  Level FlightAware
01:45AM 47.9550 -59.9340 58° Northeast 521 600 32,000  Level FlightAware
01:46AM 48.0700 -59.6030 62° Northeast 522 601 32,000  Level FlightAware
01:46AM 48.1310 -59.4440 60° Northeast 524 603 32,000  Level FlightAware
01:47AM 48.1740 -59.3320 60° Northeast 524 603 32,000  Level FlightAware
01:48AM 48.2260 -59.1990 60° Northeast 524 603 32,000  Level FlightAware
01:48AM 48.2720 -59.0800 60° Northeast 524 603 32,000  Level FlightAware
01:49AM 48.3300 -58.9280 60° Northeast 523 602 32,000  Level FlightAware
01:50AM 48.3710 -58.8220 60° Northeast 523 602 32,000  Level FlightAware
01:50AM 48.4210 -58.6920 60° Northeast 521 600 32,000  Level FlightAware
01:51AM 48.4640 -58.5790 60° Northeast 522 601 32,000  Level FlightAware
01:52AM 48.5020 -58.4790 60° Northeast 523 602 32,000  Level FlightAware
01:52AM 48.5390 -58.3830 60° Northeast 523 602 32,000  Level FlightAware
01:53AM 48.5960 -58.2300 61° Northeast 524 603 32,000  Level FlightAware
01:53AM 48.6300 -58.1360 61° Northeast 524 603 32,000  Level FlightAware
01:54AM 48.6710 -58.0250 61° Northeast 525 604 32,000  Level FlightAware
01:55AM 48.7140 -57.9090 61° Northeast 526 605 32,000  Level FlightAware
01:55AM 48.7530 -57.8000 61° Northeast 528 608 32,000  Level FlightAware
01:56AM 48.7930 -57.6780 64° Northeast 528 608 32,000  Level FlightAware
01:56AM 48.8300 -57.5680 63° Northeast 527 606 32,000  Level FlightAware
01:57AM 48.8750 -57.4300 64° Northeast 530 610 32,000  Level FlightAware
01:57AM 48.9090 -57.3300 63° Northeast 529 609 32,000  Level FlightAware
01:58AM 48.9410 -57.2330 63° Northeast 529 609 32,000  Level FlightAware
01:59AM 48.9860 -57.0990 63° Northeast 525 604 32,000  Level FlightAware
01:59AM 49.0240 -56.9840 63° Northeast 526 605 32,000  Level FlightAware
02:00AM 49.0630 -56.8660 63° Northeast 527 606 32,000  Level FlightAware
02:00AM 49.1010 -56.7500 63° Northeast 527 606 32,000  Level FlightAware
02:01AM 49.1390 -56.6350 63° Northeast 529 609 32,000  Level FlightAware
02:01AM 49.1770 -56.5170 64° Northeast 528 608 32,000  Level FlightAware
02:02AM 49.2150 -56.3990 64° Northeast 528 608 32,000  Level FlightAware
02:03AM 49.2520 -56.2820 64° Northeast 527 606 32,000  Level FlightAware
02:03AM 49.2950 -56.1490 64° Northeast 529 609 32,000  Level FlightAware
02:04AM 49.3270 -56.0490 64° Northeast 530 610 32,000  Level FlightAware
02:04AM 49.3650 -55.9290 64° Northeast 530 610 32,000  Level FlightAware
02:05AM 49.4020 -55.8110 64° Northeast 531 611 32,000  Level FlightAware
02:06AM 49.4450 -55.6740 64° Northeast 532 612 32,000  Level FlightAware
02:06AM 49.4760 -55.5740 64° Northeast 531 611 32,000  Level FlightAware
02:07AM 49.5130 -55.4530 65° Northeast 531 611 32,000  Level FlightAware
02:07AM 49.5560 -55.3160 64° Northeast 530 610 32,000  Level FlightAware
02:08AM 49.5880 -55.2130 64° Northeast 530 610 32,000  Level FlightAware
02:09AM 49.6240 -55.0950 65° Northeast 530 610 32,000  Level FlightAware
02:09AM 49.6620 -54.9740 64° Northeast 531 611 32,000  Level FlightAware
02:10AM 49.6980 -54.8550 65° Northeast 531 611 32,000  Level FlightAware
02:10AM 49.7340 -54.7350 65° Northeast 531 611 32,000  Level FlightAware
02:11AM 49.7700 -54.6170 65° Northeast 532 612 32,000  Level FlightAware
02:11AM 49.8050 -54.4990 65° Northeast 531 611 32,000  Level FlightAware
02:12AM 49.8420 -54.3720 66° East 531 611 32,000  Level FlightAware
02:13AM 49.8750 -54.2600 65° Northeast 531 611 32,000  Level FlightAware
02:13AM 49.9180 -54.1120 66° East 532 612 32,000  Level FlightAware
02:14AM 49.9480 -54.0090 66° East 532 612 32,000  Level FlightAware
02:14AM 49.9830 -53.8880 66° East 533 613 32,000  Level FlightAware
02:15AM 50.0190 -53.7630 66° East 534 615 32,000  Level FlightAware
02:15AM 50.0540 -53.6440 65° Northeast 535 616 32,000  Level FlightAware
02:16AM 50.0900 -53.5160 66° East 536 617 32,000  Level FlightAware
02:17AM 50.1240 -53.3980 66° East 536 617 32,000  Level FlightAware
02:17AM 50.1590 -53.2740 66° East 535 616 32,000  Level FlightAware
02:18AM 51.0000 -50.0000 77° East 539 620 32,000  Level ETMS Enhanced Traffic Management System
02:18AM 50.1940 -53.1490 66° East 534 615 32,000  Level FlightAware
02:18AM 50.2300 -53.0190 67° East 532 612 32,000  Level FlightAware
02:19AM 50.2790 -52.8460 66° East 531 611 32,000  Level FlightAware
02:20AM 50.3120 -52.7280 66° East 530 610 32,000  Level FlightAware
02:21AM 50.3620 -52.5470 67° East 530 610 32,000  Level FlightAware
02:21AM 50.3930 -52.4390 66° East 530 610 32,000  Level FlightAware
02:22AM 50.4370 -52.2680 68° East 526 605 32,000  Level FlightAware
02:23AM 50.4760 -52.1260 67° East 526 605 32,000  Level FlightAware
02:23AM 50.5050 -52.0180 77° East 526 605 32,000  Level FlightAware
02:24AM 50.5340 -51.9100 67° East 526 605 32,000  Level FlightAware
02:25AM 50.5640 -51.7990 67° East 526 605 32,000  Level FlightAware
02:25AM 50.5930 -51.6910 67° East 526 605 32,000  Level FlightAware
02:26AM 50.6220 -51.5830 67° East 526 605 32,000  Level FlightAware
02:26AM 50.6510 -51.4750 67° East 526 605 32,000  Level FlightAware
02:27AM 50.6800 -51.3670 67° East 526 605 32,000  Level FlightAware
02:28AM 50.7090 -51.2590 67° East 526 605 32,000  Level FlightAware
02:28AM 50.7390 -51.1480 67° East 526 605 32,000  Level FlightAware
02:29AM 50.7690 -51.0360 67° East 526 605 32,000  Level FlightAware
02:29AM 50.7980 -50.9280 67° East 526 605 32,000  Level FlightAware
02:30AM 50.8270 -50.8190 67° East 526 605 32,000  Level FlightAware
02:31AM 50.8560 -50.7110 67° East 526 605 32,000  Level FlightAware
02:31AM 50.8850 -50.6020 67° East 526 605 32,000  Level FlightAware
02:32AM 50.9140 -50.4930 67° East 526 605 32,000  Level FlightAware
02:33AM 51.0167 -49.8167 67° East 550 633 32,000  Level Gander Center
02:34AM 51.0000 -50.0000 77° East 539 620 32,000  Level ETMS Enhanced Traffic Management System
02:34AM 51.0333 -49.5667 77° East 550 633 32,000  Level Gander Center
02:36AM 51.0814 -49.2407 77° East  Level FlightAware Approximate
02:43AM 51.3004 -47.6579 77° East  Level FlightAware Approximate
02:44AM 51.3292 -47.4304 79° East  Level FlightAware Approximate
02:45AM 51.3567 -47.2023 79° East  Level FlightAware Approximate
02:46AM 51.3838 -46.9739 79° East  Level FlightAware Approximate
02:47AM 51.4104 -46.7452 79° East  Level FlightAware Approximate
02:48AM 51.4366 -46.5163 80° East  Level FlightAware Approximate
02:49AM 51.4623 -46.2871 80° East  Level FlightAware Approximate
02:50AM 51.4876 -46.0577 80° East  Level FlightAware Approximate
02:51AM 51.5124 -45.8280 80° East  Level FlightAware Approximate
02:52AM 51.5368 -45.5980 80° East  Level FlightAware Approximate
02:53AM 51.5607 -45.3678 80° East  Level FlightAware Approximate
02:54AM 51.5841 -45.1374 81° East  Level FlightAware Approximate
02:55AM 51.6072 -44.9067 81° East  Level FlightAware Approximate
02:56AM 51.6297 -44.6759 81° East  Level FlightAware Approximate
02:57AM 51.6519 -44.4447 81° East  Level FlightAware Approximate
02:58AM 51.6735 -44.2134 81° East  Level FlightAware Approximate
02:59AM 51.6947 -43.9818 82° East  Level FlightAware Approximate
03:00AM 51.7155 -43.7501 82° East  Level FlightAware Approximate
03:01AM 51.7358 -43.5181 82° East  Level FlightAware Approximate
03:02AM 51.7556 -43.2859 82° East  Level FlightAware Approximate
03:03AM 51.7750 -43.0535 82° East  Level FlightAware Approximate
03:04AM 51.7939 -42.8209 82° East  Level FlightAware Approximate
03:05AM 51.8124 -42.5881 83° East  Level FlightAware Approximate
03:06AM 51.8314 -42.3553 82° East  Level FlightAware Approximate
03:07AM 51.8502 -42.1224 82° East  Level FlightAware Approximate
03:08AM 51.8686 -41.8893 83° East  Level FlightAware Approximate
03:09AM 51.8865 -41.6560 83° East  Level FlightAware Approximate
03:10AM 51.9039 -41.4226 83° East  Level FlightAware Approximate
03:11AM 51.9209 -41.1889 83° East  Level FlightAware Approximate
03:12AM 51.9374 -40.9551 83° East  Level FlightAware Approximate
03:13AM 51.9535 -40.7211 84° East  Level FlightAware Approximate
03:14AM 51.9691 -40.4869 84° East  Level FlightAware Approximate
03:15AM 51.9842 -40.2526 84° East  Level FlightAware Approximate
03:16AM 51.9989 -40.0182 84° East  Level FlightAware Approximate
03:17AM 52.0306 -39.7882 77° East  Level FlightAware Approximate
03:18AM 52.0633 -39.5583 77° East  Level FlightAware Approximate
03:19AM 52.0955 -39.3280 77° East  Level FlightAware Approximate
03:20AM 52.1273 -39.0975 77° East  Level FlightAware Approximate
03:21AM 52.1586 -38.8666 77° East  Level FlightAware Approximate
03:22AM 52.1895 -38.6353 78° East  Level FlightAware Approximate
03:23AM 52.2200 -38.4038 78° East  Level FlightAware Approximate
03:24AM 52.2499 -38.1720 78° East  Level FlightAware Approximate
03:24AM 52.0000 -40.0000 77° East 541 623 32,000  Level ETMS Enhanced Traffic Management System
03:25AM 52.2795 -37.9398 78° East  Level FlightAware Approximate
03:26AM 52.3086 -37.7069 78° East  Level FlightAware Approximate
03:27AM 52.3373 -37.4737 79° East  Level FlightAware Approximate
03:28AM 52.3655 -37.2402 79° East  Level FlightAware Approximate
03:29AM 52.3932 -37.0065 79° East  Level FlightAware Approximate
03:30AM 52.4903 -36.1533 80° East 541 623 32,000  Level FlightAware Transoceanic
03:31AM 52.5168 -35.9102 80° East 541 623 32,000  Level FlightAware Transoceanic
03:32AM 52.5427 -35.6668 80° East 541 623 32,000  Level FlightAware Transoceanic
03:33AM 52.5682 -35.4231 80° East 541 623 32,000  Level FlightAware Transoceanic
03:34AM 52.5931 -35.1791 81° East 541 623 32,000  Level FlightAware Transoceanic
03:35AM 52.6176 -34.9348 81° East 541 623 32,000  Level FlightAware Transoceanic
03:36AM 52.6416 -34.6903 81° East 541 623 32,000  Level FlightAware Transoceanic
03:37AM 52.6650 -34.4455 81° East 541 623 32,000  Level FlightAware Transoceanic
03:38AM 52.6880 -34.2005 81° East 541 623 32,000  Level FlightAware Transoceanic
03:39AM 52.7104 -33.9552 82° East 541 623 32,000  Level FlightAware Transoceanic
03:40AM 52.7323 -33.7096 82° East 541 623 32,000  Level FlightAware Transoceanic
03:41AM 52.7538 -33.4638 82° East 541 623 32,000  Level FlightAware Transoceanic
03:42AM 52.7747 -33.2178 82° East 541 623 32,000  Level FlightAware Transoceanic
03:43AM 52.7951 -32.9715 82° East 541 623 32,000  Level FlightAware Transoceanic
03:44AM 52.8150 -32.7250 82° East 541 623 32,000  Level FlightAware Transoceanic
03:45AM 52.8344 -32.4783 83° East 541 623 32,000  Level FlightAware Transoceanic
03:46AM 52.8533 -32.2313 83° East 541 623 32,000  Level FlightAware Transoceanic
03:47AM 52.8716 -31.9842 83° East 541 623 32,000  Level FlightAware Transoceanic
03:48AM 52.8895 -31.7368 83° East 541 623 32,000  Level FlightAware Transoceanic
03:49AM 52.9068 -31.4893 83° East 541 623 32,000  Level FlightAware Transoceanic
03:50AM 52.9236 -31.2415 84° East 541 623 32,000  Level FlightAware Transoceanic
03:51AM 52.9399 -30.9936 84° East 541 623 32,000  Level FlightAware Transoceanic
03:52AM 52.9557 -30.7454 84° East 541 623 32,000  Level FlightAware Transoceanic
03:53AM 52.9710 -30.4971 84° East 541 623 32,000  Level FlightAware Transoceanic
03:54AM 52.9858 -30.2486 84° East 541 623 32,000  Level FlightAware Transoceanic
03:55AM 52.9995 -30.0082 84° East  Level FlightAware Approximate
03:56AM 53.0128 -29.7676 85° East  Level FlightAware Approximate
03:57AM 53.0092 -29.7754 86° East  Level FlightAware Approximate
03:58AM 53.0187 -29.5343 86° East  Level FlightAware Approximate
03:58AM 53.0000 -30.0000 86° East 515 593 32,000  Level ETMS Enhanced Traffic Management System
03:59AM 53.0276 -29.2931 86° East  Level FlightAware Approximate
04:00AM 53.0361 -29.0517 87° East  Level FlightAware Approximate
04:01AM 53.0440 -28.8103 87° East  Level FlightAware Approximate
04:02AM 53.0515 -28.5688 87° East  Level FlightAware Approximate
04:03AM 53.0585 -28.3272 87° East  Level FlightAware Approximate
04:04AM 53.0706 -27.8603 88° East 515 593 32,000  Level FlightAware Transoceanic
04:05AM 53.0761 -27.6221 88° East 515 593 32,000  Level FlightAware Transoceanic
04:06AM 53.0811 -27.3839 88° East 515 593 32,000  Level FlightAware Transoceanic
04:07AM 53.0856 -27.1457 88° East 515 593 32,000  Level FlightAware Transoceanic
04:08AM 53.0897 -26.9074 88° East 515 593 32,000  Level FlightAware Transoceanic
04:09AM 53.0933 -26.6691 89° East 515 593 32,000  Level FlightAware Transoceanic
04:10AM 53.0964 -26.4307 89° East 515 593 32,000  Level FlightAware Transoceanic
04:11AM 53.0990 -26.1923 89° East 515 593 32,000  Level FlightAware Transoceanic
04:12AM 53.1011 -25.9539 89° East 515 593 32,000  Level FlightAware Transoceanic
04:13AM 53.1028 -25.7154 89° East 515 593 32,000  Level FlightAware Transoceanic
04:14AM 53.1040 -25.4770 90° East 515 593 32,000  Level FlightAware Transoceanic
04:15AM 53.1047 -25.2385 90° East 515 593 32,000  Level FlightAware Transoceanic
04:16AM 53.1049 -25.0000 90° East 515 593 32,000  Level FlightAware Transoceanic
04:17AM 53.1047 -24.7615 90° East 515 593 32,000  Level FlightAware Transoceanic
04:18AM 53.1040 -24.5230 90° East 515 593 32,000  Level FlightAware Transoceanic
04:19AM 53.1028 -24.2846 91° East 515 593 32,000  Level FlightAware Transoceanic
04:20AM 53.1011 -24.0461 91° East 515 593 32,000  Level FlightAware Transoceanic
04:21AM 53.0990 -23.8077 91° East 515 593 32,000  Level FlightAware Transoceanic
04:22AM 53.0964 -23.5693 91° East 515 593 32,000  Level FlightAware Transoceanic
04:23AM 53.0933 -23.3309 91° East 515 593 32,000  Level FlightAware Transoceanic
04:24AM 53.0897 -23.0926 92° East 515 593 32,000  Level FlightAware Transoceanic
04:25AM 53.0856 -22.8543 92° East 515 593 32,000  Level FlightAware Transoceanic
04:26AM 53.0811 -22.6161 92° East 515 593 32,000  Level FlightAware Transoceanic
04:27AM 53.0761 -22.3779 92° East 515 593 32,000  Level FlightAware Transoceanic
04:28AM 53.0706 -22.1397 92° East 515 593 32,000  Level FlightAware Transoceanic
04:29AM 53.0647 -21.9017 92° East 515 593 32,000  Level FlightAware Transoceanic
04:30AM 53.0583 -21.6637 93° East 515 593 32,000  Level FlightAware Transoceanic
04:31AM 53.0514 -21.4257 93° East 515 593 32,000  Level FlightAware Transoceanic
04:32AM 53.0440 -21.1879 93° East 515 593 32,000  Level FlightAware Transoceanic
04:33AM 53.0361 -20.9501 93° East 515 593 32,000  Level FlightAware Transoceanic
04:34AM 53.0278 -20.7124 93° East 515 593 32,000  Level FlightAware Transoceanic
04:35AM 53.0190 -20.4749 94° East 515 593 32,000  Level FlightAware Transoceanic
04:36AM 53.0097 -20.2374 94° East 515 593 32,000  Level FlightAware Transoceanic
04:37AM 52.9999 -19.9963 94° East  Level FlightAware Approximate
04:38AM 53.0000 -19.9927 90° East  Level FlightAware Approximate
04:39AM 52.9992 -19.7511 90° East  Level FlightAware Approximate
04:40AM 52.9978 -19.5100 90° East  Level FlightAware Approximate
04:41AM 52.9961 -19.2689 91° East  Level FlightAware Approximate
04:42AM 52.9938 -19.0278 91° East  Level FlightAware Approximate
04:43AM 52.9910 -18.7867 91° East  Level FlightAware Approximate
04:44AM 52.9878 -18.5457 91° East  Level FlightAware Approximate
04:45AM 52.9840 -18.3047 91° East  Level FlightAware Approximate
04:46AM 52.9798 -18.0638 92° East  Level FlightAware Approximate
04:47AM 52.9751 -17.8229 92° East  Level FlightAware Approximate
04:48AM 52.9699 -17.5820 92° East  Level FlightAware Approximate
04:49AM 52.9642 -17.3413 92° East  Level FlightAware Approximate
04:50AM 52.9580 -17.1005 92° East  Level FlightAware Approximate
04:51AM 52.9513 -16.8599 93° East  Level FlightAware Approximate
04:52AM 52.9442 -16.6194 93° East  Level FlightAware Approximate
04:53AM 52.9366 -16.3789 93° East  Level FlightAware Approximate
04:54AM 52.9284 -16.1385 93° East  Level FlightAware Approximate
04:55AM 52.9198 -15.8982 93° East  Level FlightAware Approximate
04:56AM 52.9107 -15.6580 93° East  Level FlightAware Approximate
04:57AM 52.9012 -15.4179 94° East  Level FlightAware Approximate
04:58AM 52.8911 -15.1779 94° East  Level FlightAware Approximate
04:59AM 52.8808 -14.9380 94° East  Level FlightAware Approximate
05:00AM 52.8706 -14.6981 94° East  Level FlightAware Approximate
05:01AM 52.8600 -14.4583 94° East  Level FlightAware Approximate
05:02AM 52.8489 -14.2187 94° East  Level FlightAware Approximate
05:03AM 52.8373 -13.9792 94° East  Level FlightAware Approximate
05:03AM 52.8880 -12.9450 95° East 557 641 33,000  Level FlightAware
05:04AM 52.8252 -13.7398 95° East  Level FlightAware Approximate
05:04AM 52.8780 -12.8000 96° East 555 639 33,000  Level FlightAware
05:04AM 52.8700 -12.6830 96° East 555 639 33,000  Level FlightAware
05:05AM 52.8570 -12.5040 97° East 554 638 33,000  Level FlightAware
05:05AM 52.8480 -12.3760 97° East 554 638 33,000  Level FlightAware
05:06AM 52.8360 -12.2160 97° East 554 638 33,000  Level FlightAware
05:07AM 52.8230 -12.0520 97° East 553 636 33,000  Level FlightAware
05:07AM 52.8110 -11.9050 98° East 554 638 33,000  Level FlightAware
05:08AM 52.7950 -11.7240 98° East 554 638 33,000  Level FlightAware
05:08AM 52.7840 -11.6010 98° East 553 636 33,000  Level FlightAware
05:09AM 52.7710 -11.4550 98° East 553 636 33,000  Level FlightAware
05:10AM 52.7580 -11.3070 98° East 553 636 33,000  Level FlightAware
05:10AM 52.7440 -11.1620 99° East 551 634 33,000  Level FlightAware
05:11AM 52.7310 -11.0220 99° East 550 633 33,000  Level FlightAware
05:11AM 52.7130 -10.8320 99° East 546 628 33,000  Level FlightAware
05:12AM 52.6990 -10.6850 99° East 544 626 33,000  Level FlightAware
05:12AM 52.6860 -10.5600 100° East 543 625 33,000  Level FlightAware
05:13AM 52.6720 -10.4210 99° East 543 625 33,000  Level FlightAware
05:14AM 52.6550 -10.2540 99° East 544 626 33,000  Level FlightAware
05:14AM 52.6450 -10.1500 99° East 544 626 33,000  Level FlightAware
05:15AM 52.6290 -9.9970 100° East 546 628 33,000  Level FlightAware
05:15AM 52.6160 -9.8680 99° East 547 629 33,000  Level FlightAware
05:16AM 52.5970 -9.6880 100° East 547 629 33,000  Level FlightAware
05:17AM 52.5820 -9.5450 100° East 546 628 33,000  Level FlightAware
05:17AM 52.5670 -9.4100 100° East 544 626 33,000  Level FlightAware
05:18AM 52.5510 -9.2580 100° East 542 624 33,000  Level FlightAware
05:18AM 52.5360 -9.1210 100° East 543 625 33,000  Level FlightAware
05:19AM 52.5190 -8.9720 101° East 542 624 33,000  Level FlightAware
05:20AM 52.5050 -8.8420 100° East 540 621 33,000  Level FlightAware
05:20AM 52.4771 -8.7297 100° East 506 582 33,000  Level FlightAware UK
05:20AM 52.4860 -8.6770 100° East 539 620 33,000  Level FlightAware
05:21AM 52.4700 -8.5420 101° East 538 619 33,000  Level FlightAware
05:21AM 52.4540 -8.4050 101° East 540 621 33,000  Level FlightAware
05:22AM 52.4370 -8.2580 101° East 542 624 33,000  Level FlightAware
05:23AM 52.4200 -8.1170 101° East 543 625 33,000  Level FlightAware
05:23AM 52.3930 -8.0071 101° East 500 575 33,000  Level FlightAware UK
05:23AM 52.4030 -7.9750 101° East 546 628 33,000  Level FlightAware
05:24AM 52.3786 -7.8839 101° East 502 578 33,000  Level FlightAware UK
05:24AM 52.3860 -7.8330 101° East 549 632 33,000  Level FlightAware
05:24AM 52.3690 -7.6930 101° East 551 634 33,000 480 Level FlightAware
05:25AM 52.3480 -7.5300 102° East 554 638 33,600 1,260 Climbing FlightAware
05:25AM 52.3330 -7.4120 102° East 549 632 34,500 1,260 Climbing FlightAware
05:26AM 52.3160 -7.2750 101° East 546 628 35,000 420 Climbing FlightAware
05:27AM 52.2872 -7.1518 101° East 500 575 35,000  Level FlightAware UK
05:27AM 52.2980 -7.1310 101° East 546 628 35,000  Level FlightAware
05:27AM 52.2716 -7.0307 101° East 500 575 35,000  Level FlightAware UK
05:27AM 52.2790 -6.9850 101° East 545 627 35,000  Level FlightAware
05:28AM 52.2610 -6.8520 102° East 543 625 35,000  Level FlightAware
05:28AM 52.2410 -6.6970 102° East 544 626 35,000  Level FlightAware
05:29AM 52.2230 -6.5610 102° East 546 628 35,000  Level FlightAware
05:30AM 52.2040 -6.4240 103° East 549 632 35,000  Level FlightAware
05:30AM 52.1850 -6.2840 102° East 550 633 35,000  Level FlightAware
05:31AM 52.1597 -6.1886 102° East 498 573 35,000  Level FlightAware UK
05:31AM 52.1620 -6.1180 102° East 552 635 35,000  Level FlightAware
05:31AM 52.1430 -5.9790 103° East 553 636 35,000  Level FlightAware
05:32AM 52.1230 -5.8350 103° East 553 636 35,000  Level FlightAware
05:33AM 52.1020 -5.6870 103° East 554 638 35,000  Level FlightAware
05:33AM 52.0740 -5.5440 108° East 564 649 35,000  Level FlightAware
05:34AM 52.0345 -5.4662 108° East 504 580 35,000  Level FlightAware UK
05:34AM 52.0400 -5.4210 108° East 565 650 35,000  Level FlightAware
05:34AM 52.0010 -5.2850 115° Southeast 564 649 35,000  Level FlightAware
05:35AM 51.9620 -5.1430 114° Southeast 562 647 35,000  Level FlightAware
05:35AM 51.9280 -5.0240 115° Southeast 562 647 35,000  Level FlightAware
05:36AM 51.8890 -4.8860 115° Southeast 562 647 35,000  Level FlightAware
05:37AM 51.8500 -4.7480 115° Southeast 561 646 35,000  Level FlightAware
05:37AM 51.8096 -4.6602 115° Southeast 504 580 35,000  Level FlightAware UK
05:37AM 51.8140 -4.6150 115° Southeast 559 643 35,000  Level FlightAware
05:38AM 51.7770 -4.4790 114° Southeast 557 641 35,000  Level FlightAware
05:38AM 51.7450 -4.3590 113° Southeast 554 638 35,000  Level FlightAware
05:39AM 51.7095 -4.2703 113° Southeast 500 575 35,000  Level FlightAware UK
05:39AM 51.7130 -4.2200 113° Southeast 548 631 35,000  Level FlightAware
05:40AM 51.6940 -4.0770 102° East 538 619 35,000  Level FlightAware
05:40AM 51.6822 -3.9845 102° East 496 571 35,000  Level FlightAware UK
05:40AM 51.6850 -3.9330 102° East 537 618 35,000  Level FlightAware
05:41AM 51.6770 -3.8020 96° East 538 619 35,000  Level FlightAware
05:41AM 51.6680 -3.6530 96° East 540 621 35,000  Level FlightAware
05:42AM 51.6590 -3.5170 96° East 541 623 35,000  Level FlightAware
05:42AM 51.6490 -3.3650 96° East 542 624 35,000  Level FlightAware
05:43AM 51.6410 -3.2350 96° East 543 625 35,000  Level FlightAware
05:43AM 51.6379 -3.1956 97° East 543 625 35,000  Level FlightAware ADS-B
05:44AM 51.6298 -3.0734 96° East 542 624 35,000  Level FlightAware ADS-B
05:44AM 51.6214 -2.9487 96° East 542 624 35,000  Level FlightAware ADS-B
05:45AM 51.6132 -2.8262 96° East 544 626 35,000  Level FlightAware ADS-B
05:45AM 51.6039 -2.6933 96° East 544 626 35,000  Level FlightAware ADS-B
05:46AM 51.5944 -2.5570 96° East 544 626 35,000  Level FlightAware ADS-B
05:46AM 51.5856 -2.4360 97° East 543 625 35,000  Level FlightAware ADS-B
05:47AM 51.5768 -2.3154 97° East 543 625 35,000  Level FlightAware ADS-B
05:47AM 51.5674 -2.1878 97° East 542 624 35,000  Level FlightAware ADS-B
05:48AM 51.5583 -2.0660 97° East 542 624 35,000  Level FlightAware ADS-B
05:48AM 51.5487 -1.9400 97° East 541 623 35,000  Level FlightAware ADS-B
05:49AM 51.5391 -1.8176 97° East 540 621 35,000  Level FlightAware ADS-B
05:49AM 51.5296 -1.6973 97° East 538 619 35,000  Level FlightAware ADS-B
05:50AM 51.5200 -1.5775 97° East 536 617 35,000  Level FlightAware ADS-B
05:50AM 51.5097 -1.4544 98° East 534 615 35,000  Level FlightAware ADS-B
05:51AM 51.4997 -1.3328 97° East 531 611 35,000  Level FlightAware ADS-B
05:51AM 51.4896 -1.2138 98° East 529 609 35,000  Level FlightAware ADS-B
05:52AM 51.4795 -1.0941 98° East 527 606 35,000  Level FlightAware ADS-B
05:53AM 51.4693 -0.9759 98° East 526 605 35,000  Level FlightAware ADS-B
05:53AM 51.4581 -0.8488 98° East 525 604 35,000  Level FlightAware ADS-B
05:54AM 51.4475 -0.7295 98° East 527 606 35,000  Level FlightAware ADS-B
05:54AM 51.4368 -0.6103 98° East 528 608 35,000  Level FlightAware ADS-B
05:55AM 51.4263 -0.4916 98° East 528 608 35,000  Level FlightAware ADS-B
05:55AM 51.4155 -0.3709 98° East 529 609 35,000  Level FlightAware ADS-B
05:56AM 51.4048 -0.2486 98° East 528 608 35,000  Level FlightAware ADS-B
05:56AM 51.3936 -0.1223 98° East 526 605 35,000  Level FlightAware ADS-B
05:57AM 51.3830 -0.0036 98° East 525 604 35,000  Level FlightAware ADS-B
05:57AM 51.3717 0.1195 98° East 526 605 35,000  Level FlightAware ADS-B
05:58AM 51.3607 0.2370 98° East 526 605 35,000  Level FlightAware ADS-B
05:58AM 51.3493 0.3548 99° East 526 605 35,000  Level FlightAware ADS-B
05:59AM 51.3377 0.4732 99° East 526 605 35,000  Level FlightAware ADS-B
05:59AM 51.3264 0.5886 99° East 527 606 35,000  Level FlightAware ADS-B
06:00AM 51.3142 0.7103 99° East 526 605 35,000  Level FlightAware ADS-B
06:00AM 51.3025 0.8263 99° East 525 604 35,000  Level FlightAware ADS-B
06:01AM 51.2906 0.9423 99° East 525 604 35,000  Level FlightAware ADS-B
06:01AM 51.2785 1.0616 99° East 524 603 35,000  Level FlightAware ADS-B
06:02AM 51.2664 1.1778 99° East 524 603 35,000  Level FlightAware ADS-B
06:02AM 51.2532 1.3043 99° East 524 603 35,000  Level FlightAware ADS-B
06:03AM 51.2410 1.4160 100° East 524 603 35,000  Level FlightAware
06:04AM 51.2270 1.5540 99° East 525 604 35,000  Level FlightAware
06:04AM 51.2085 1.6602 99° East 494 568 35,000  Level FlightAware UK
06:04AM 51.2110 1.6970 99° East 526 605 35,000  Level FlightAware
06:05AM 51.1960 1.8230 99° East 526 605 35,000  Level FlightAware
06:05AM 51.1930 1.7967 99° East 496 571 35,000  Level FlightAware UK
06:05AM 51.1772 1.9110 99° East 496 571 35,000  Level FlightAware UK
06:05AM 51.1770 1.9630 99° East 526 605 35,000  Level FlightAware
06:06AM 51.1580 2.0950 103° East 526 605 35,000  Level FlightAware
06:06AM 51.1359 2.1818 103° East 498 573 35,000  Level FlightAware UK
06:06AM 51.1360 2.2310 103° East 525 604 35,000  Level FlightAware
06:07AM 51.1150 2.3590 105° East 525 604 35,000  Level FlightAware
06:08AM 51.0940 2.4820 105° East 524 603 35,000  Level FlightAware
06:08AM 51.0907 2.4513 105° East 502 578 35,000  Level FlightAware UK
06:08AM 51.0717 2.5629 105° East 498 573 35,000  Level FlightAware UK
06:08AM 51.0720 2.6170 105° East 522 601 35,000  Level FlightAware
06:09AM 51.0500 2.7460 105° East 521 600 35,000  Level FlightAware
06:09AM 51.0290 2.8680 105° East 520 598 35,000  Level FlightAware
06:10AM 51.0110 2.9750 105° East 521 600 35,000  Level FlightAware
06:11AM 50.9830 3.1390 105° East 521 600 35,000  Level FlightAware
06:11AM 50.9630 3.2520 105° East 522 601 35,000  Level FlightAware
06:11AM 50.9579 3.2278 105° East 492 566 35,000  Level FlightAware UK
06:12AM 50.9346 3.3608 105° East 492 566 35,000  Level FlightAware UK
06:12AM 50.9380 3.3950 105° East 524 603 35,000  Level FlightAware
06:12AM 50.9140 3.5350 105° East 526 605 35,000  Level FlightAware
06:13AM 50.8940 3.6500 105° East 527 606 35,000  Level FlightAware
06:13AM 50.8710 3.7780 106° East 527 606 35,000  Level FlightAware
06:14AM 50.8470 3.9140 106° East 528 608 35,000  Level FlightAware
06:15AM 50.8260 4.0300 106° East 528 608 35,000  Level FlightAware
06:15AM 50.7947 4.1404 106° East 496 571 35,000  Level FlightAware UK
06:15AM 50.7990 4.1660 106° East 527 606 35,000  Level FlightAware
06:16AM 50.7710 4.2940 109° East 527 606 35,000  Level FlightAware
06:16AM 50.7460 4.4120 108° East 527 606 35,000  Level FlightAware
06:17AM 50.7160 4.5510 109° East 527 606 35,000  Level FlightAware
06:18AM 50.6870 4.6890 108° East 527 606 35,000  Level FlightAware
06:18AM 50.6610 4.8070 109° East 528 608 35,000  Level FlightAware
06:19AM 50.6270 4.9650 109° East 530 610 35,000  Level FlightAware
06:19AM 50.5980 5.0970 109° East 530 610 35,000  Level FlightAware
06:20AM 50.5740 5.2070 109° East 530 610 35,000  Level FlightAware
06:21AM 50.5460 5.3340 109° East 532 612 35,000  Level FlightAware
06:21AM 50.5170 5.4680 109° East 532 612 35,000  Level FlightAware
06:22AM 50.4880 5.5960 110° East 533 613 35,000  Level FlightAware
06:22AM 50.4570 5.7340 109° East 532 612 35,000  Level FlightAware
06:23AM 50.4310 5.8480 110° East 532 612 35,000  Level FlightAware
06:24AM 50.4000 5.9820 110° East 532 612 35,000  Level FlightAware
06:24AM 50.3760 6.0880 110° East 532 612 35,000  Level FlightAware
06:25AM 50.3420 6.2310 110° East 531 611 35,000  Level FlightAware
06:25AM 50.3120 6.3620 110° East 530 610 35,000  Level FlightAware
06:26AM 50.2770 6.5070 111° Southeast 530 610 35,000  Level FlightAware
06:27AM 50.2470 6.6340 110° East 530 610 35,000  Level FlightAware
06:27AM 50.2160 6.7630 111° Southeast 529 609 35,000  Level FlightAware
06:28AM 50.1880 6.8800 110° East 529 609 35,000  Level FlightAware
06:28AM 50.1570 7.0070 111° Southeast 529 609 35,000  Level FlightAware
06:29AM 50.1240 7.1420 111° Southeast 529 609 35,000  Level FlightAware
06:29AM 50.0970 7.2530 111° Southeast 530 610 35,000  Level FlightAware
06:30AM 50.0630 7.3910 111° Southeast 532 612 35,000  Level FlightAware
06:31AM 50.0310 7.5190 111° Southeast 531 611 35,000  Level FlightAware
06:31AM 49.9880 7.6220 123° Southeast 526 605 35,000  Level FlightAware
06:32AM 49.9220 7.7100 139° Southeast 519 597 35,000  Level FlightAware
06:32AM 49.8590 7.7820 144° Southeast 519 597 35,000  Level FlightAware
06:33AM 49.7870 7.8620 144° Southeast 520 598 35,000  Level FlightAware
06:34AM 49.7160 7.9410 144° Southeast 520 598 35,000  Level FlightAware
06:34AM 49.6540 8.0090 145° Southeast 521 600 35,000  Level FlightAware
06:35AM 49.5920 8.0780 144° Southeast 523 602 35,000  Level FlightAware
06:35AM 49.5160 8.1610 145° Southeast 522 601 35,000  Level FlightAware
06:36AM 49.4500 8.2350 144° Southeast 523 602 35,000  Level FlightAware
06:36AM 49.3730 8.3190 145° Southeast 524 603 35,000  Level FlightAware
06:37AM 49.3100 8.3880 144° Southeast 524 603 35,000  Level FlightAware
06:38AM 49.2220 8.4830 145° Southeast 525 604 35,000  Level FlightAware
06:38AM 49.1520 8.5590 145° Southeast 526 605 35,000  Level FlightAware
06:39AM 49.0870 8.6290 145° Southeast 527 606 35,000  Level FlightAware
06:40AM 49.0110 8.7110 145° Southeast 527 606 35,000  Level FlightAware
06:40AM 48.9490 8.7770 145° Southeast 527 606 35,000  Level FlightAware
06:41AM 48.8760 8.8550 145° Southeast 527 606 35,000  Level FlightAware
06:41AM 48.8040 8.9320 145° Southeast 528 608 35,000  Level FlightAware
06:42AM 48.7410 8.9990 145° Southeast 528 608 35,000  Level FlightAware
06:42AM 48.6670 9.0770 145° Southeast 528 608 35,000  Level FlightAware
06:43AM 48.6000 9.1490 145° Southeast 528 608 35,000  Level FlightAware
06:44AM 48.5280 9.2260 145° Southeast 529 609 35,000  Level FlightAware
06:44AM 48.4530 9.3070 144° Southeast 529 609 35,000  Level FlightAware
06:45AM 48.3810 9.3840 145° Southeast 529 609 35,000  Level FlightAware
06:45AM 48.3160 9.4530 145° Southeast 528 608 35,000  Level FlightAware
06:46AM 48.2420 9.5310 145° Southeast 528 608 35,000  Level FlightAware
06:46AM 48.1760 9.6010 145° Southeast 528 608 35,000  Level FlightAware
06:47AM 48.1070 9.6740 145° Southeast 528 608 35,000  Level FlightAware
06:48AM 48.0350 9.7500 145° Southeast 529 609 35,000  Level FlightAware
06:48AM 47.9700 9.8170 145° Southeast 529 609 35,000  Level FlightAware
06:49AM 47.8950 9.8950 145° Southeast 529 609 35,000  Level FlightAware
06:49AM 47.8270 9.9660 145° Southeast 530 610 35,000  Level FlightAware
06:50AM 47.7600 10.0350 145° Southeast 531 611 35,000  Level FlightAware
06:51AM 47.6830 10.1150 145° Southeast 532 612 35,000  Level FlightAware
06:51AM 47.6240 10.1760 145° Southeast 532 612 35,000  Level FlightAware
06:52AM 47.5510 10.2510 145° Southeast 532 612 35,000  Level FlightAware
06:52AM 47.4810 10.3230 145° Southeast 532 612 35,000  Level FlightAware
06:53AM 47.4050 10.4060 144° Southeast 533 613 35,000  Level FlightAware
06:53AM 47.3370 10.4970 138° Southeast 533 613 35,000  Level FlightAware
06:54AM 47.2880 10.5720 134° Southeast 533 613 35,000  Level FlightAware
06:55AM 47.2210 10.6720 135° Southeast 534 615 35,000  Level FlightAware
06:55AM 47.1550 10.7720 134° Southeast 534 615 35,000  Level FlightAware
06:56AM 47.0990 10.8550 135° Southeast 533 613 35,000  Level FlightAware
06:56AM 47.0380 10.9450 135° Southeast 533 613 35,000  Level FlightAware
06:57AM 46.9800 11.0320 134° Southeast 534 615 35,000  Level FlightAware
06:58AM 46.9100 11.1350 135° Southeast 534 615 35,000  Level FlightAware
06:58AM 46.8390 11.2400 135° Southeast 534 615 35,000  Level FlightAware
06:59AM 46.7800 11.3250 135° Southeast 535 616 35,000  Level FlightAware
06:59AM 46.7130 11.3930 145° Southeast 533 613 35,000  Level FlightAware
07:00AM 46.6330 11.4500 154° Southeast 533 613 35,000  Level FlightAware
07:01AM 46.5650 11.4970 155° Southeast 533 613 35,000  Level FlightAware
07:01AM 46.4750 11.5650 153° Southeast 533 613 35,000  Level FlightAware
07:02AM 46.4130 11.6370 141° Southeast 533 613 35,000  Level FlightAware
07:02AM 46.3510 11.7330 133° Southeast 533 613 35,000  Level FlightAware
07:03AM 46.2910 11.8300 132° Southeast 533 613 35,000  Level FlightAware
07:04AM 46.2370 11.9150 133° Southeast 533 613 35,000  Level FlightAware
07:04AM 46.1840 11.9990 132° Southeast 532 612 35,000  Level FlightAware
07:05AM 46.1220 12.0950 133° Southeast 531 611 35,000  Level FlightAware
07:05AM 46.0640 12.1850 133° Southeast 530 610 35,000  Level FlightAware
07:06AM 46.0090 12.2710 133° Southeast 529 609 35,000  Level FlightAware
07:07AM 45.9400 12.3780 133° Southeast 530 610 35,000  Level FlightAware
07:07AM 45.8660 12.4920 133° Southeast 525 604 35,000  Level FlightAware
07:08AM 45.8100 12.5800 132° Southeast 525 604 35,000  Level FlightAware
07:08AM 45.7510 12.6690 134° Southeast 525 604 35,000  Level FlightAware
07:09AM 45.6930 12.7580 133° Southeast 525 604 35,000  Level FlightAware
07:10AM 45.6380 12.8420 133° Southeast 525 604 35,000  Level FlightAware
07:10AM 45.5740 12.9380 134° Southeast 525 604 35,000  Level FlightAware
07:11AM 45.5150 13.0270 133° Southeast 525 604 35,000  Level FlightAware
07:11AM 45.4560 13.1150 134° Southeast 525 604 35,000  Level FlightAware
07:12AM 45.3980 13.2010 134° Southeast 525 604 35,000  Level FlightAware
07:12AM 45.3400 13.2890 133° Southeast 525 604 35,000  Level FlightAware
07:13AM 45.2810 13.3770 134° Southeast 524 603 35,000  Level FlightAware
07:14AM 45.2220 13.4640 134° Southeast 523 602 35,000  Level FlightAware
07:14AM 45.1400 13.5870 133° Southeast 528 608 35,000  Level FlightAware
07:15AM 45.0970 13.6520 133° Southeast 529 609 35,000  Level FlightAware
07:16AM 45.0310 13.7710 128° Southeast 524 603 35,000  Level FlightAware
07:16AM 44.9890 13.8550 125° Southeast 523 602 35,000  Level FlightAware
07:17AM 44.9400 13.9470 127° Southeast 516 594 35,000  Level FlightAware
07:17AM 44.8890 14.0450 126° Southeast 519 597 35,000  Level FlightAware
07:18AM 44.8390 14.1410 126° Southeast 512 589 35,000  Level FlightAware
07:19AM 44.7870 14.2440 125° Southeast 516 594 35,000  Level FlightAware
07:19AM 44.7320 14.3500 126° Southeast 515 593 35,000  Level FlightAware
07:20AM 44.6750 14.4610 126° Southeast 515 593 35,000  Level FlightAware
07:20AM 44.6270 14.5520 127° Southeast 515 593 35,000  Level FlightAware
07:21AM 44.5740 14.6540 126° Southeast 515 593 35,000  Level FlightAware
07:22AM 44.5160 14.7640 126° Southeast 514 592 35,000  Level FlightAware
07:22AM 44.4720 14.8480 126° Southeast 514 592 35,000  Level FlightAware
07:23AM 44.4130 14.9590 127° Southeast 514 592 35,000  Level FlightAware
07:23AM 44.3690 15.0440 126° Southeast 514 592 35,000  Level FlightAware
07:24AM 44.3200 15.1360 127° Southeast 513 590 35,000  Level FlightAware
07:25AM 44.2480 15.2710 127° Southeast 512 589 35,000  Level FlightAware
07:25AM 44.1990 15.3630 127° Southeast 513 590 35,000  Level FlightAware
07:26AM 44.1490 15.4570 127° Southeast 511 588 35,000  Level FlightAware
07:27AM 44.0930 15.5590 127° Southeast 510 587 35,000  Level FlightAware
07:27AM 44.0550 15.6300 127° Southeast 510 587 35,000  Level FlightAware
07:28AM 44.0050 15.7240 126° Southeast 509 586 35,000  Level FlightAware
07:28AM 43.9600 15.8070 127° Southeast 509 586 35,000  Level FlightAware
07:29AM 43.9000 15.9180 127° Southeast 509 586 35,000  Level FlightAware
07:30AM 43.8510 16.0070 127° Southeast 509 586 35,000  Level FlightAware
07:30AM 43.8010 16.0990 127° Southeast 509 586 35,000  Level FlightAware
07:31AM 43.7520 16.1870 128° Southeast 507 583 35,000  Level FlightAware
07:31AM 43.7070 16.2700 127° Southeast 506 582 35,000  Level FlightAware
07:32AM 43.6580 16.3580 128° Southeast 505 581 35,000  Level FlightAware
07:32AM 43.6060 16.4520 127° Southeast 505 581 35,000  Level FlightAware
07:33AM 43.5490 16.5550 127° Southeast 503 579 35,000  Level FlightAware
07:34AM 43.5000 16.6430 127° Southeast 504 580 35,000  Level FlightAware
07:34AM 43.4580 16.7170 128° Southeast 504 580 35,000  Level FlightAware
07:35AM 43.4030 16.8160 127° Southeast 503 579 35,000  Level FlightAware
07:35AM 43.3590 16.8960 127° Southeast 504 580 35,000  Level FlightAware
07:36AM 43.3060 16.9900 128° Southeast 503 579 35,000  Level FlightAware
07:37AM 43.2580 17.0750 128° Southeast 503 579 35,000  Level FlightAware
07:37AM 43.2080 17.1630 128° Southeast 502 578 35,000  Level FlightAware
07:38AM 43.1580 17.2520 128° Southeast 503 579 35,000  Level FlightAware
07:38AM 43.1030 17.3490 128° Southeast 502 578 35,000  Level FlightAware
07:39AM 43.0620 17.4220 128° Southeast 502 578 35,000  Level FlightAware
07:39AM 43.0050 17.5210 128° Southeast 502 578 35,000  Level FlightAware
07:40AM 42.9540 17.6110 128° Southeast 501 577 35,000  Level FlightAware
07:41AM 42.9050 17.6970 128° Southeast 501 577 35,000  Level FlightAware
07:41AM 42.8530 17.7880 128° Southeast 501 577 35,000  Level FlightAware
07:42AM 42.8020 17.8760 128° Southeast 500 575 35,000  Level FlightAware
07:42AM 42.7580 17.9530 128° Southeast 499 574 35,000  Level FlightAware
07:43AM 42.7070 18.0400 129° Southeast 499 574 35,000  Level FlightAware
07:44AM 42.6420 18.1520 128° Southeast 499 574 35,000  Level FlightAware
07:44AM 42.5910 18.2390 129° Southeast 498 573 35,000  Level FlightAware
07:45AM 42.5470 18.3100 130° Southeast 499 574 35,000  Level FlightAware
07:45AM 42.4850 18.3970 134° Southeast 500 575 35,000  Level FlightAware
07:46AM 42.4240 18.4780 136° Southeast 500 575 35,000  Level FlightAware
07:47AM 42.3640 18.5550 137° Southeast 500 575 35,000  Level FlightAware
07:47AM 42.3100 18.6240 137° Southeast 498 573 35,000  Level FlightAware
07:48AM 42.2500 18.7000 137° Southeast 498 573 35,000  Level FlightAware
07:48AM 42.1890 18.7770 137° Southeast 498 573 35,000  Level FlightAware
07:49AM 42.1310 18.8520 136° Southeast 498 573 35,000  Level FlightAware
07:49AM 42.0750 18.9230 137° Southeast 498 573 35,000  Level FlightAware
07:50AM 42.0170 18.9960 137° Southeast 498 573 35,000  Level FlightAware
07:51AM 41.9530 19.0750 137° Southeast 500 575 35,000  Level FlightAware
07:51AM 41.8930 19.1510 137° Southeast 500 575 35,000  Level FlightAware
07:52AM 41.8290 19.2310 137° Southeast 499 574 35,000  Level FlightAware
07:52AM 41.7690 19.3060 137° Southeast 500 575 35,000  Level FlightAware
07:53AM 41.7080 19.3810 137° Southeast 500 575 35,000  Level FlightAware
07:54AM 41.6480 19.4600 135° Southeast 499 574 35,000  Level FlightAware
07:54AM 41.5930 19.5310 136° Southeast 498 573 35,000  Level FlightAware
07:55AM 41.5340 19.6080 136° Southeast 499 574 35,000  Level FlightAware
07:55AM 41.4790 19.6800 136° Southeast 499 574 35,000  Level FlightAware
07:56AM 41.4190 19.7580 136° Southeast 499 574 35,000  Level FlightAware
07:57AM 41.3600 19.8340 136° Southeast 500 575 35,000  Level FlightAware
07:57AM 41.2990 19.9130 136° Southeast 500 575 35,000  Level FlightAware
07:58AM 41.2410 19.9870 136° Southeast 500 575 35,000  Level FlightAware
07:58AM 41.1820 20.0620 136° Southeast 502 578 35,000  Level FlightAware
07:59AM 41.1250 20.1350 136° Southeast 501 577 35,000  Level FlightAware
07:59AM 41.0730 20.2010 136° Southeast 500 575 35,000  Level FlightAware
08:00AM 41.0110 20.2790 136° Southeast 500 575 35,000  Level FlightAware
08:01AM 40.9510 20.3540 137° Southeast 499 574 35,000  Level FlightAware
08:01AM 40.8890 20.4320 136° Southeast 497 572 35,000  Level FlightAware
08:02AM 40.8320 20.5050 136° Southeast 497 572 35,000  Level FlightAware
08:02AM 40.7780 20.5720 137° Southeast 497 572 35,000  Level FlightAware
08:03AM 40.7230 20.6400 137° Southeast 498 573 35,000  Level FlightAware
08:04AM 40.6560 20.7230 137° Southeast 498 573 35,000  Level FlightAware
08:04AM 40.5980 20.7940 137° Southeast 498 573 35,000  Level FlightAware
08:05AM 40.5410 20.8660 136° Southeast 499 574 35,000  Level FlightAware
08:05AM 40.4800 20.9400 137° Southeast 498 573 35,000  Level FlightAware
08:06AM 40.4200 21.0140 137° Southeast 498 573 35,000  Level FlightAware
08:07AM 40.3590 21.0870 138° Southeast 498 573 35,000  Level FlightAware
08:07AM 40.3030 21.1560 137° Southeast 498 573 35,000  Level FlightAware
08:08AM 40.2470 21.2240 137° Southeast 495 570 35,000  Level FlightAware
08:08AM 40.1880 21.2960 137° Southeast 493 567 35,000  Level FlightAware
08:09AM 40.1280 21.3680 137° Southeast 493 567 35,000  Level FlightAware
08:09AM 40.0670 21.4360 140° Southeast 490 564 35,000  Level FlightAware
08:10AM 40.0000 21.4990 144° Southeast 489 563 35,000  Level FlightAware
08:11AM 39.9320 21.5620 145° Southeast 490 564 35,000  Level FlightAware
08:11AM 39.8730 21.6180 144° Southeast 490 564 35,000  Level FlightAware
08:12AM 39.8050 21.6810 145° Southeast 491 565 35,000 600 Level FlightAware
08:12AM 39.7470 21.7360 144° Southeast 494 568 35,700 1,320 Climbing FlightAware
08:13AM 39.6800 21.8000 144° Southeast 497 572 36,500 1,200 Climbing FlightAware
08:14AM 39.6140 21.8730 140° Southeast 504 580 37,200 1,080 Climbing FlightAware
08:14AM 39.5530 21.9470 137° Southeast 504 580 37,900 1,200 Climbing FlightAware
08:15AM 39.4990 22.0140 136° Southeast 502 578 38,600 960 Climbing FlightAware
08:15AM 39.4380 22.0880 137° Southeast 505 581 39,000 300 Climbing FlightAware
08:16AM 39.3770 22.1630 136° Southeast 506 582 39,000  Level FlightAware
08:16AM 39.3150 22.2380 137° Southeast 505 581 39,000  Level FlightAware
08:17AM 39.2610 22.3040 137° Southeast 503 579 39,000  Level FlightAware
08:18AM 39.2000 22.3790 136° Southeast 503 579 39,000  Level FlightAware
08:18AM 39.1450 22.4460 137° Southeast 502 578 39,000  Level FlightAware
08:19AM 39.0720 22.5340 137° Southeast 502 578 39,000  Level FlightAware
08:19AM 39.0170 22.6000 137° Southeast 502 578 39,000  Level FlightAware
08:20AM 38.9490 22.6820 137° Southeast 503 579 39,000  Level FlightAware
08:21AM 38.8970 22.7450 137° Southeast 503 579 39,000  Level FlightAware
08:21AM 38.8330 22.8220 137° Southeast 502 578 39,000  Level FlightAware
08:22AM 38.7800 22.8940 133° Southeast 509 586 39,000  Level FlightAware
08:22AM 38.7330 22.9730 127° Southeast 515 593 39,000  Level FlightAware
08:23AM 38.6820 23.0690 124° Southeast 516 594 39,000  Level FlightAware
08:24AM 38.6370 23.1550 124° Southeast 515 593 39,000  Level FlightAware
08:24AM 38.5910 23.2420 124° Southeast 516 594 39,000  Level FlightAware
08:25AM 38.5390 23.3380 125° Southeast 516 594 39,000  Level FlightAware
08:25AM 38.4890 23.4300 125° Southeast 516 594 39,000  Level FlightAware
08:26AM 38.4450 23.5110 125° Southeast 515 593 39,000  Level FlightAware
08:26AM 38.3980 23.5970 125° Southeast 514 592 39,000  Level FlightAware
08:27AM 38.3510 23.6820 125° Southeast 515 593 39,000  Level FlightAware
08:28AM 38.2990 23.7770 125° Southeast 515 593 39,000  Level FlightAware
08:28AM 38.2550 23.8590 124° Southeast 516 594 39,000  Level FlightAware
08:29AM 38.2060 23.9500 124° Southeast 516 594 39,000  Level FlightAware
08:29AM 38.1600 24.0340 125° Southeast 516 594 39,000  Level FlightAware
08:30AM 38.1140 24.1170 125° Southeast 515 593 39,000  Level FlightAware
08:31AM 38.0660 24.2050 125° Southeast 515 593 39,000  Level FlightAware
08:31AM 38.0150 24.2990 125° Southeast 516 594 39,000  Level FlightAware
08:32AM 37.9680 24.3860 124° Southeast 515 593 39,000  Level FlightAware
08:32AM 37.9240 24.4680 124° Southeast 513 590 39,000  Level FlightAware
08:33AM 37.8780 24.5520 125° Southeast 512 589 39,000  Level FlightAware
08:33AM 37.8300 24.6390 125° Southeast 512 589 39,000  Level FlightAware
08:34AM 37.7720 24.7440 125° Southeast 512 589 39,000  Level FlightAware
08:35AM 37.7210 24.8340 126° Southeast 512 589 39,000  Level FlightAware
08:35AM 37.6730 24.9200 125° Southeast 513 590 39,000  Level FlightAware
08:36AM 37.6290 25.0000 125° Southeast 513 590 39,000  Level FlightAware
08:37AM 37.5800 25.0880 125° Southeast 514 592 39,000  Level FlightAware
08:37AM 37.5390 25.1610 125° Southeast 514 592 39,000  Level FlightAware
08:38AM 37.4920 25.2430 126° Southeast 515 593 39,000  Level FlightAware
08:38AM 37.4440 25.3270 126° Southeast 516 594 39,000  Level FlightAware
08:39AM 37.3920 25.4190 125° Southeast 516 594 39,000  Level FlightAware
08:39AM 37.3460 25.5000 126° Southeast 517 595 39,000  Level FlightAware
08:40AM 37.3000 25.5810 126° Southeast 518 596 39,000  Level FlightAware
08:40AM 37.2470 25.6730 126° Southeast 518 596 39,000  Level FlightAware
08:41AM 37.2030 25.7480 126° Southeast 519 597 39,000  Level FlightAware
08:42AM 37.1500 25.8400 126° Southeast 520 598 39,000  Level FlightAware
08:42AM 37.1000 25.9280 125° Southeast 520 598 39,000  Level FlightAware
08:43AM 37.0480 26.0170 126° Southeast 522 601 39,000  Level FlightAware
08:43AM 37.0020 26.0960 126° Southeast 522 601 39,000  Level FlightAware
08:44AM 36.9520 26.1830 126° Southeast 521 600 39,000  Level FlightAware
08:45AM 36.9010 26.2690 127° Southeast 522 601 39,000  Level FlightAware
08:45AM 36.8500 26.3580 126° Southeast 521 600 39,000  Level FlightAware
08:46AM 36.8040 26.4360 126° Southeast 522 601 39,000  Level FlightAware
08:46AM 36.7530 26.5230 126° Southeast 522 601 39,000  Level FlightAware
08:47AM 36.7010 26.6100 127° Southeast 520 598 39,000  Level FlightAware
08:47AM 36.6490 26.6970 127° Southeast 521 600 39,000  Level FlightAware
08:48AM 36.6030 26.7760 126° Southeast 521 600 39,000  Level FlightAware
08:49AM 36.5530 26.8580 127° Southeast 521 600 39,000  Level FlightAware
08:49AM 36.4990 26.9500 126° Southeast 522 601 39,000  Level FlightAware
08:50AM 36.4530 27.0270 127° Southeast 523 602 39,000  Level FlightAware
08:50AM 36.4070 27.1040 127° Southeast 518 596 39,000  Level FlightAware
08:51AM 36.3340 27.2290 126° Southeast 519 597 39,000  Level FlightAware
08:52AM 36.2590 27.3530 127° Southeast 519 597 39,000  Level FlightAware
08:53AM 36.2170 27.4280 125° Southeast 519 597 39,000  Level FlightAware
08:53AM 36.1750 27.5020 125° Southeast 519 597 39,000  Level FlightAware
08:54AM 36.0730 27.6580 129° Southeast 522 601 39,000  Level FlightAware
08:55AM 36.0290 27.7340 126° Southeast 522 601 39,000  Level FlightAware
08:55AM 35.9650 27.8350 128° Southeast 530 610 39,000  Level FlightAware
08:56AM 35.9190 27.9090 127° Southeast 530 610 39,000  Level FlightAware
08:57AM 35.8670 27.9950 127° Southeast 531 611 39,000  Level FlightAware
08:57AM 35.8070 28.0920 127° Southeast 531 611 39,000  Level FlightAware
08:58AM 35.7560 28.1740 127° Southeast 529 609 39,000  Level FlightAware
08:58AM 35.7000 28.2640 127° Southeast 528 608 39,000  Level FlightAware
08:59AM 35.6470 28.3500 127° Southeast 528 608 39,000  Level FlightAware
08:59AM 35.6000 28.4250 128° Southeast 528 608 39,000  Level FlightAware
09:00AM 35.5440 28.5160 127° Southeast 527 606 39,000  Level FlightAware
09:01AM 35.4950 28.5940 128° Southeast 527 606 39,000  Level FlightAware
09:01AM 35.4460 28.6720 128° Southeast 527 606 39,000  Level FlightAware
09:02AM 35.3890 28.7640 127° Southeast 525 604 39,000  Level FlightAware
09:02AM 35.3420 28.8380 128° Southeast 526 605 39,000  Level FlightAware
09:03AM 35.2940 28.9140 128° Southeast 525 604 39,000  Level FlightAware
09:04AM 35.2350 29.0070 128° Southeast 524 603 39,000  Level FlightAware
09:04AM 35.1740 29.1030 128° Southeast 524 603 39,000  Level FlightAware
09:05AM 35.1260 29.1810 127° Southeast 525 604 39,000  Level FlightAware
09:05AM 35.0810 29.2540 127° Southeast 525 604 39,000  Level FlightAware
09:06AM 35.0160 29.3540 128° Southeast 524 603 39,000  Level FlightAware
09:07AM 34.9370 29.4760 128° Southeast 523 602 39,000  Level FlightAware
09:08AM 34.8710 29.5770 129° Southeast 523 602 39,000  Level FlightAware
09:08AM 34.8250 29.6480 128° Southeast 522 601 39,000  Level FlightAware
09:09AM 34.7660 29.7400 128° Southeast 520 598 39,000  Level FlightAware
09:09AM 34.7130 29.8220 128° Southeast 519 597 39,000  Level FlightAware
09:10AM 34.6600 29.9060 127° Southeast 518 596 39,000  Level FlightAware
09:11AM 34.6140 29.9760 129° Southeast 518 596 39,000  Level FlightAware
09:11AM 34.5690 30.0460 128° Southeast 518 596 39,000  Level FlightAware
09:12AM 34.4970 30.2000 120° Southeast 524 603 39,000  Level FlightAware
09:13AM 34.4400 30.3180 120° Southeast 519 597 39,000  Level FlightAware
09:13AM 34.3990 30.4030 120° Southeast 519 597 39,000  Level FlightAware
09:14AM 34.3610 30.4820 120° Southeast 517 595 39,000  Level FlightAware
09:14AM 34.3180 30.5690 121° Southeast 516 594 39,000  Level FlightAware
09:15AM 34.2690 30.6700 120° Southeast 517 595 39,000  Level FlightAware
09:16AM 34.2320 30.7450 121° Southeast 516 594 39,000  Level FlightAware
09:16AM 34.1910 30.8310 120° Southeast 517 595 39,000  Level FlightAware
09:17AM 34.1480 30.9190 121° Southeast 517 595 39,000  Level FlightAware
09:17AM 34.1040 31.0080 121° Southeast 517 595 39,000  Level FlightAware
09:18AM 34.0530 31.1120 121° Southeast 516 594 39,000  Level FlightAware
09:19AM 34.0170 31.1860 120° Southeast 515 593 39,000  Level FlightAware
09:19AM 33.9740 31.2720 121° Southeast 514 592 39,000  Level FlightAware
09:20AM 33.9290 31.3630 121° Southeast 513 590 39,000  Level FlightAware
09:20AM 33.8850 31.4520 121° Southeast 513 590 39,000  Level FlightAware
09:21AM 33.8430 31.5370 121° Southeast 513 590 39,000  Level FlightAware
09:22AM 33.8000 31.6240 121° Southeast 512 589 39,000  Level FlightAware
09:22AM 33.7560 31.7130 121° Southeast 511 588 39,000  Level FlightAware
09:23AM 33.7130 31.7980 121° Southeast 509 586 39,000  Level FlightAware
09:23AM 33.6710 31.8830 121° Southeast 508 585 39,000  Level FlightAware
09:24AM 33.6280 31.9690 121° Southeast 507 583 39,000  Level FlightAware
09:24AM 33.5850 32.0550 121° Southeast 507 583 39,000  Level FlightAware
09:25AM 33.5370 32.1510 121° Southeast 506 582 39,000  Level FlightAware
09:26AM 33.5010 32.2230 121° Southeast 506 582 39,000  Level FlightAware
09:26AM 33.4510 32.3210 121° Southeast 506 582 39,000  Level FlightAware
09:27AM 33.4120 32.3970 122° Southeast 505 581 39,000 -360 Level FlightAware
09:28AM 33.3580 32.5030 121° Southeast 504 580 38,600 -960 Descending FlightAware
09:28AM 33.3040 32.6100 121° Southeast 505 581 37,600 -1,380 Descending FlightAware
09:29AM 33.2600 32.6940 122° Southeast 503 579 36,800 -1,380 Descending FlightAware
09:29AM 33.2250 32.7630 121° Southeast 507 583 36,100 -1,440 Descending FlightAware
09:30AM 33.1640 32.8790 122° Southeast 516 594 35,000 -1,740 Descending FlightAware
09:31AM 33.1270 32.9490 122° Southeast 513 590 33,900 -2,040 Descending FlightAware
09:31AM 33.0790 33.0440 121° Southeast 511 588 32,800 -2,160 Descending FlightAware
09:32AM 33.0310 33.1360 122° Southeast 503 579 31,200 -2,520 Descending FlightAware
09:32AM 32.9920 33.2120 121° Southeast 496 571 29,800 -2,460 Descending FlightAware
09:33AM 32.9530 33.2870 122° Southeast 485 558 28,500 -2,400 Descending FlightAware
09:34AM 32.9110 33.3660 122° Southeast 472 543 27,100 -2,400 Descending FlightAware
09:34AM 32.8670 33.4510 122° Southeast 457 526 25,600 -2,400 Descending FlightAware
09:35AM 32.8320 33.5180 122° Southeast 444 511 24,300 -2,340 Descending FlightAware
09:35AM 32.7910 33.5960 122° Southeast 430 495 22,900 -2,280 Descending FlightAware
09:36AM 32.7560 33.6630 122° Southeast 420 483 21,600 -1,680 Descending FlightAware
09:37AM 32.7190 33.7330 122° Southeast 421 484 21,000 -1,200 Descending FlightAware
09:37AM 32.6820 33.8050 121° Southeast 411 473 20,200 -1,860 Descending FlightAware
09:38AM 32.6460 33.8730 122° Southeast 408 470 18,800 -2,400 Descending FlightAware
09:38AM 32.6160 33.9290 122° Southeast 404 465 17,600 -2,340 Descending FlightAware
09:39AM 32.5780 34.0000 122° Southeast 398 458 16,200 -2,520 Descending FlightAware
09:40AM 32.5430 34.0660 122° Southeast 400 460 14,500 -3,720 Descending FlightAware
09:40AM 32.5060 34.1360 122° Southeast 421 484 11,800 -3,780 Descending FlightAware
09:41AM 32.4720 34.1910 126° Southeast 415 478 10,400 -1,560 Descending FlightAware
09:41AM 32.4250 34.2460 135° Southeast 370 426 10,100 -180 Descending FlightAware
09:42AM 32.3850 34.2920 136° Southeast 328 377 10,200  Climbing FlightAware
09:42AM 32.3570 34.3250 135° Southeast 312 359 10,100 -720 Descending FlightAware
09:43AM 32.3240 34.3630 136° Southeast 293 337 9,500 -1,260 Descending FlightAware
09:43AM 32.3010 34.3910 134° Southeast 291 335 9,000 -1,320 Descending FlightAware
09:43AM 32.2930 34.4010 133° Southeast 290 334 8,800 -1,200 Descending FlightAware
09:44AM 32.2640 34.4340 136° Southeast 287 330 8,200 -1,200 Descending FlightAware
09:44AM 32.2400 34.4620 135° Southeast 280 322 7,700 -1,080 Descending FlightAware
09:45AM 32.2250 34.4850 128° Southeast 274 315 7,400 -1,080 Descending FlightAware
09:45AM 32.2120 34.5100 122° Southeast 270 311 7,000 -1,200 Descending FlightAware
09:45AM 32.2060 34.5210 123° Southeast 270 311 6,800 -360 Descending FlightAware
09:46AM 32.1910 34.5490 122° Southeast 270 311 6,800 -1,200 Level FlightAware
09:46AM 32.1800 34.5700 122° Southeast 267 307 6,000 -2,100 Descending FlightAware
09:46AM 32.1590 34.6100 122° Southeast 268 308 5,300 -900 Descending FlightAware
09:47AM 32.1380 34.6490 122° Southeast 273 314 5,100 -240 Descending FlightAware
09:47AM 32.1240 34.6730 125° Southeast 272 313 5,100 120 Level FlightAware
09:48AM 32.1070 34.7030 124° Southeast 272 313 5,200  Climbing FlightAware
09:48AM 32.0940 34.7280 122° Southeast 267 307 5,100  Descending FlightAware
09:48AM 32.0840 34.7460 123° Southeast 261 300 5,200 120 Climbing FlightAware
09:49AM 32.0680 34.7730 125° Southeast 261 300 5,200 -180 Level FlightAware
09:49AM 32.0560 34.7920 127° Southeast 241 277 5,100 -420 Descending FlightAware
09:49AM 32.0400 34.8090 138° Southeast 239 275 5,000 -180 Descending FlightAware
09:50AM 32.0220 34.8290 137° Southeast 239 275 5,000 -600 Level FlightAware
09:50AM 32.0000 34.8530 137° Southeast 226 260 4,500 -840 Descending FlightAware
09:51AM 31.9730 34.8850 135° Southeast 226 260 4,100 -1,440 Descending FlightAware
09:51AM 31.9730 34.9120 90° East 226 260 3,100 -1,860 Descending FlightAware
09:51AM 31.9780 34.9350 76° East 165 190 2,800 -840 Descending FlightAware
09:52AM 31.9840 34.9620 75° East 162 186 2,300 -900 Descending FlightAware
09:53AM 32.0060 34.9760 28° Northeast 148 170 1,700 -600 Descending FlightAware
09:53AM 32.0300 34.9700 348° North 146 168 1,500 -300 Descending FlightAware
09:56AM 32.0095 34.8769 255° West  Level Estimated